Map

Track Data

SID SEASON NUMBER BASIN SUBBASIN NAME ISO_TIME NATURE LAT LON WMO_WIND WMO_PRES WMO_AGENCY TRACK_TYPE DIST2LAND LANDFALL IFLAG USA_AGENCY USA_ATCF_ID USA_LAT USA_LON USA_RECORD USA_STATUS USA_WIND USA_PRES USA_SSHS USA_R34_NE USA_R34_SE USA_R34_SW USA_R34_NW USA_R50_NE USA_R50_SE USA_R50_SW USA_R50_NW USA_R64_NE USA_R64_SE USA_R64_SW USA_R64_NW USA_POCI USA_ROCI USA_RMW USA_EYE TOKYO_LAT TOKYO_LON TOKYO_GRADE TOKYO_WIND TOKYO_PRES TOKYO_R50_DIR TOKYO_R50_LONG TOKYO_R50_SHORT TOKYO_R30_DIR TOKYO_R30_LONG TOKYO_R30_SHORT TOKYO_LAND CMA_LAT CMA_LON CMA_CAT CMA_WIND CMA_PRES HKO_LAT HKO_LON HKO_CAT HKO_WIND HKO_PRES NEWDELHI_LAT NEWDELHI_LON NEWDELHI_GRADE NEWDELHI_WIND NEWDELHI_PRES NEWDELHI_CI NEWDELHI_DP NEWDELHI_POCI REUNION_LAT REUNION_LON REUNION_TYPE REUNION_WIND REUNION_PRES REUNION_TNUM REUNION_CI REUNION_RMW REUNION_R34_NE REUNION_R34_SE REUNION_R34_SW REUNION_R34_NW REUNION_R50_NE REUNION_R50_SE REUNION_R50_SW REUNION_R50_NW REUNION_R64_NE REUNION_R64_SE REUNION_R64_SW REUNION_R64_NW BOM_LAT BOM_LON BOM_TYPE BOM_WIND BOM_PRES BOM_TNUM BOM_CI BOM_RMW BOM_R34_NE BOM_R34_SE BOM_R34_SW BOM_R34_NW BOM_R50_NE BOM_R50_SE BOM_R50_SW BOM_R50_NW BOM_R64_NE BOM_R64_SE BOM_R64_SW BOM_R64_NW BOM_ROCI BOM_POCI BOM_EYE BOM_POS_METHOD BOM_PRES_METHOD NADI_LAT NADI_LON NADI_CAT NADI_WIND NADI_PRES WELLINGTON_LAT WELLINGTON_LON WELLINGTON_WIND WELLINGTON_PRES DS824_LAT DS824_LON DS824_STAGE DS824_WIND DS824_PRES TD9636_LAT TD9636_LON TD9636_STAGE TD9636_WIND TD9636_PRES TD9635_LAT TD9635_LON TD9635_WIND TD9635_PRES TD9635_ROCI NEUMANN_LAT NEUMANN_LON NEUMANN_CLASS NEUMANN_WIND NEUMANN_PRES MLC_LAT MLC_LON MLC_CLASS MLC_WIND MLC_PRES USA_GUST BOM_GUST BOM_GUST_PER REUNION_GUST REUNION_GUST_PER USA_SEAHGT USA_SEARAD_NE USA_SEARAD_SE USA_SEARAD_SW USA_SEARAD_NW STORM_SPEED STORM_DIR
1912324S11066 1913 65 SI MM NOT_NAMED 1912-11-19 06:00:00 NR -10.8000 65.9000 reunion main 1361 1354 _____O________ -1 -10.8000 65.9000 99 9.90000 2 270
1912324S11066 1913 65 SI MM NOT_NAMED 1912-11-19 09:00:00 NR -10.7997 65.8225 main 1354 1348 _____P________ -1 -10.7997 65.8225 99 2 270
1912324S11066 1913 65 SI MM NOT_NAMED 1912-11-19 12:00:00 NR -10.8006 65.7334 main 1348 1341 _____P________ -1 -10.8006 65.7334 99 2 269
1912324S11066 1913 65 SI MM NOT_NAMED 1912-11-19 15:00:00 NR -10.8040 65.6209 main 1341 1334 _____P________ -1 -10.8040 65.6209 99 3 268
1912324S11066 1913 65 SI MM NOT_NAMED 1912-11-19 18:00:00 NR -10.8111 65.4735 main 1334 1321 _____P________ -1 -10.8111 65.4735 99 3 267
1912324S11066 1913 65 SI MM NOT_NAMED 1912-11-19 21:00:00 NR -10.8231 65.2795 main 1321 1301 _____P________ -1 -10.8231 65.2795 99 4 266
1912324S11066 1913 65 SI MM NOT_NAMED 1912-11-20 00:00:00 NR -10.8413 65.0270 main 1301 1273 _____P________ -1 -10.8413 65.0270 99 6 266
1912324S11066 1913 65 SI MM NOT_NAMED 1912-11-20 03:00:00 NR -10.8665 64.7045 main 1273 1248 _____P________ -1 -10.8665 64.7045 99 7 265
1912324S11066 1913 65 SI MM NOT_NAMED 1912-11-20 06:00:00 NR -10.9000 64.3000 reunion main 1248 1219 _____O________ -1 -10.9000 64.3000 99 9.90000 9 265
1912324S11066 1913 65 SI MM NOT_NAMED 1912-11-20 09:00:00 NR -10.9420 63.8072 main 1219 1181 _____P________ -1 -10.9420 63.8072 99 10 265
1912324S11066 1913 65 SI MM NOT_NAMED 1912-11-20 12:00:00 NR -10.9906 63.2415 main 1176 1150 _____P________ -1 -10.9906 63.2415 99 12 265
1912324S11066 1913 65 SI MM NOT_NAMED 1912-11-20 15:00:00 NR -11.0434 62.6241 main 1145 1107 _____P________ -1 -11.0434 62.6241 99 12 265
1912324S11066 1913 65 SI MM NOT_NAMED 1912-11-20 18:00:00 NR -11.0983 61.9759 main 1107 1071 _____P________ -1 -11.0983 61.9759 99 13 265
1912324S11066 1913 65 SI MM NOT_NAMED 1912-11-20 21:00:00 NR -11.1533 61.3182 main 1068 1046 _____P________ -1 -11.1533 61.3182 99 13 265
1912324S11066 1913 65 SI MM NOT_NAMED 1912-11-21 00:00:00 NR -11.2063 60.6721 main 1046 1017 _____P________ -1 -11.2063 60.6721 99 12 265
1912324S11066 1913 65 SI MM NOT_NAMED 1912-11-21 03:00:00 NR -11.2557 60.0590 main 1017 1003 _____P________ -1 -11.2557 60.0590 99 12 265
1912324S11066 1913 65 SI MM NOT_NAMED 1912-11-21 06:00:00 NR -11.3000 59.5000 reunion main 1003 996 _____O________ -1 -11.3000 59.5000 99 9.90000 9 266
1912324S11066 1913 65 SI MM NOT_NAMED 1912-11-21 09:00:00 NR -11.3245 59.0992 main 996 984 _____P________ -1 -11.3245 59.0992 99 7 267
1912324S11066 1913 65 SI MM NOT_NAMED 1912-11-21 12:00:00 NR -11.3444 58.7481 main 974 939 _____P________ -1 -11.3444 58.7481 99 7 267
1912324S11066 1913 65 SI MM NOT_NAMED 1912-11-21 15:00:00 NR -11.3621 58.4328 main 939 918 _____P________ -1 -11.3621 58.4328 99 6 267
1912324S11066 1913 65 SI MM NOT_NAMED 1912-11-21 18:00:00 NR -11.3800 58.1391 main 908 887 _____P________ -1 -11.3800 58.1391 99 6 266
1912324S11066 1913 65 SI MM NOT_NAMED 1912-11-21 21:00:00 NR -11.4005 57.8530 main 887 855 _____P________ -1 -11.4005 57.8530 99 6 265
1912324S11066 1913 65 SI MM NOT_NAMED 1912-11-22 00:00:00 NR -11.4259 57.5605 main 855 821 _____P________ -1 -11.4259 57.5605 99 6 264
1912324S11066 1913 65 SI MM NOT_NAMED 1912-11-22 03:00:00 NR -11.4583 57.2475 main 810 779 _____P________ -1 -11.4583 57.2475 99 7 263
1912324S11066 1913 65 SI MM NOT_NAMED 1912-11-22 06:00:00 NR -11.5000 56.9000 reunion main 779 734 _____O________ -1 -11.5000 56.9000 99 9.90000 8 262
1912324S11066 1913 65 SI MM NOT_NAMED 1912-11-22 09:00:00 NR -11.5690 56.4275 main 723 670 _____P________ -1 -11.5690 56.4275 99 10 261
1912324S11066 1913 65 SI MM NOT_NAMED 1912-11-22 12:00:00 NR -11.6478 55.9207 main 670 615 _____P________ -1 -11.6478 55.9207 99 10 261
1912324S11066 1913 65 SI MM NOT_NAMED 1912-11-22 15:00:00 NR -11.7322 55.3927 main 615 559 _____P________ -1 -11.7322 55.3927 99 11 261
1912324S11066 1913 65 SI MM NOT_NAMED 1912-11-22 18:00:00 NR -11.8182 54.8567 main 559 504 _____P________ -1 -11.8182 54.8567 99 11 261
1912324S11066 1913 65 SI MM NOT_NAMED 1912-11-22 21:00:00 NR -11.9018 54.3260 main 493 438 _____P________ -1 -11.9018 54.3260 99 10 261
1912324S11066 1913 65 SI MM NOT_NAMED 1912-11-23 00:00:00 NR -11.9791 53.8141 main 438 396 _____P________ -1 -11.9791 53.8141 99 10 262
1912324S11066 1913 65 SI MM NOT_NAMED 1912-11-23 03:00:00 NR -12.0464 53.3343 main 385 341 _____P________ -1 -12.0464 53.3343 99 9 262
1912324S11066 1913 65 SI MM NOT_NAMED 1912-11-23 06:00:00 NR -12.1000 52.9000 reunion main 341 310 _____O________ -1 -12.1000 52.9000 99 9.90000 7 265
1912324S11066 1913 65 SI MM NOT_NAMED 1912-11-23 09:00:00 NR -12.1049 52.5963 main 310 289 _____P________ -1 -12.1049 52.5963 99 5 271
1912324S11066 1913 65 SI MM NOT_NAMED 1912-11-23 12:00:00 NR -12.0950 52.3399 main 279 259 _____P________ -1 -12.0950 52.3399 99 5 273
1912324S11066 1913 65 SI MM NOT_NAMED 1912-11-23 15:00:00 NR -12.0770 52.1148 main 259 254 _____P________ -1 -12.0770 52.1148 99 3 287
1912324S11066 1913 65 SI MM NOT_NAMED 1912-11-23 18:00:00 NR -12.0062 52.0440 main 254 244 _____P____O___ -1 -12.0577 51.9050 99 -11.8000 52.6000 4 3 293
1912324S11066 1913 65 SI MM NOT_NAMED 1912-11-23 21:00:00 NR -11.9740 51.8667 main 244 215 _____P____P___ -1 -12.0438 51.6947 99 -11.8345 52.2109 4 4 275
1912324S11066 1913 65 SI MM NOT_NAMED 1912-11-24 00:00:00 NR -11.9704 51.6133 main 215 188 _____P____P___ -1 -12.0418 51.4677 99 -11.8750 51.8074 4 6 268
1912324S11066 1913 65 SI MM NOT_NAMED 1912-11-24 03:00:00 NR -11.9932 51.2917 main 188 156 _____P____P___ -1 -12.0584 51.2082 99 -11.9281 51.3752 4 7 264
1912324S11066 1913 65 SI MM NOT_NAMED 1912-11-24 06:00:00 TS -12.0444 50.9000 reunion main 156 107 _____O___OO___ -1 -12.1000 50.9000 99 9.90000 -12.0000 50.9000 TC 65 -12.0000 50.9000 4 9 261
1912324S11066 1913 65 SI MM NOT_NAMED 1912-11-24 09:00:00 TS -12.1243 50.4057 main 107 54 _____P___PP___ -1 -12.1703 50.4643 99 -12.0902 50.3525 TC 65 -12.0955 50.3738 4 10 260
1912324S11066 1913 65 SI MM NOT_NAMED 1912-11-24 12:00:00 TS -12.2270 49.8715 main 54 0 _____P___OP___ -1 -12.2616 49.9815 99 -12.2000 49.8000 TC 65 -12.2127 49.8150 4 11 258
1912324S11066 1913 65 SI MM NOT_NAMED 1912-11-24 15:00:00 TS -12.3546 49.3185 main 0 0 _____P___PP___ -1 -12.3729 49.4643 99 -12.3424 49.2425 TC 65 -12.3486 49.2487 4 11 256
1912324S11066 1913 65 SI MM NOT_NAMED 1912-11-24 18:00:00 TS -12.5011 48.7750 main 0 0 _____P___OO___ -1 -12.5032 48.9250 99 -12.5000 48.7000 TC 65 -12.5000 48.7000 4 11 254
1912324S11066 1913 65 SI MM NOT_NAMED 1912-11-24 21:00:00 TS -12.6515 48.2482 main 66 66 _____P___PP___ -1 -12.6518 48.3764 99 -12.6424 48.1849 TC 65 -12.6604 48.1832 4 11 253
1912324S11066 1913 65 SI MM NOT_NAMED 1912-11-25 00:00:00 TS -12.8175 47.7403 main 95 89 _____P___OP___ -1 -12.8178 47.8309 99 -12.8000 47.7000 TC 65 -12.8348 47.6901 4 10 250
1912324S11066 1913 65 SI MM NOT_NAMED 1912-11-25 03:00:00 TS -13.0058 47.2519 main 101 101 _____P___PP___ -1 -13.0008 47.3013 99 -13.0000 47.2275 TC 65 -13.0167 47.2269 4 10 247
1912324S11066 1913 65 SI MM NOT_NAMED 1912-11-25 06:00:00 TS -13.2000 46.8000 reunion main 131 131 _____O___OO___ -1 -13.2000 46.8000 99 9.90000 -13.2000 46.8000 TC 65 -13.2000 46.8000 4 9 246
1912324S11066 1913 65 SI MM NOT_NAMED 1912-11-25 09:00:00 TS -13.3723 46.4041 main 165 165 _____P___PP___ -1 -13.4171 46.3477 99 -13.3499 46.4349 TC 65 -13.3500 46.4296 4 8 245
1912324S11066 1913 65 SI MM NOT_NAMED 1912-11-25 12:00:00 TS -13.5529 46.0356 main 202 202 _____P___OP___ -1 -13.6546 45.9153 99 -13.5000 46.1000 TC 65 -13.5042 46.0915 4 8 242
1912324S11066 1913 65 SI MM NOT_NAMED 1912-11-25 15:00:00 TS -13.7552 45.6754 main 203 203 _____P___PP___ -1 -13.9070 45.5038 99 -13.6774 45.7648 TC 65 -13.6813 45.7576 4 8 238
1912324S11066 1913 65 SI MM NOT_NAMED 1912-11-25 18:00:00 TS -13.9896 45.3048 main 210 191 _____P___OO___ -1 -14.1689 45.1143 99 -13.9000 45.4000 TC 65 -13.9000 45.4000 4 9 236
1912324S11066 1913 65 SI MM NOT_NAMED 1912-11-25 21:00:00 TS -14.2730 44.8840 main 191 169 _____P___PP___ -1 -14.4347 44.7479 99 -14.1775 44.9650 TC 65 -14.2067 44.9390 4 10 234
1912324S11066 1913 65 SI MM NOT_NAMED 1912-11-26 00:00:00 TS -14.5832 44.4540 main 169 159 _____P___OP___ -1 -14.6988 44.4059 99 -14.5000 44.5000 TC 65 -14.5507 44.4562 4 10 232
1912324S11066 1913 65 SI MM NOT_NAMED 1912-11-26 03:00:00 TS -14.9075 44.0325 main 162 144 _____P___PP___ -1 -14.9558 44.0895 99 -14.8726 44.0127 TC 65 -14.8942 43.9952 4 10 231
1912324S11066 1913 65 SI MM NOT_NAMED 1912-11-26 06:00:00 TS -15.2000 43.6667 reunion main 144 139 _____O___OO___ -1 -15.2000 43.8000 99 9.90000 -15.2000 43.6000 TC 65 -15.2000 43.6000 4 8 231
1912324S11066 1913 65 SI MM NOT_NAMED 1912-11-26 09:00:00 TS -15.4051 43.4016 main 146 146 _____P___PP___ -1 -15.4254 43.5153 99 -15.3723 43.3622 TC 65 -15.4176 43.3274 4 6 230
1912324S11066 1913 65 SI MM NOT_NAMED 1912-11-26 12:00:00 TS -15.5789 43.1940 main 150 150 _____P___OP___ -1 -15.6423 43.2580 99 -15.5000 43.2000 TC 65 -15.5943 43.1241 4 5 228
1912324S11066 1913 65 SI MM NOT_NAMED 1912-11-26 15:00:00 TS -15.7637 42.9951 main 159 159 _____P___PP___ -1 -15.8496 43.0265 99 -15.6925 43.0000 TC 65 -15.7489 42.9588 4 5 225
1912324S11066 1913 65 SI MM NOT_NAMED 1912-11-26 18:00:00 TS -15.9487 42.8064 main 176 174 _____P___OO___ -1 -16.0462 42.8192 99 -15.9000 42.8000 TC 65 -15.9000 42.8000 4 5 224
1912324S11066 1913 65 SI MM NOT_NAMED 1912-11-26 21:00:00 TS -16.1335 42.6190 main 193 192 _____P___PP___ -1 -16.2307 42.6345 99 -16.1075 42.6000 TC 65 -16.0622 42.6223 4 5 224
1912324S11066 1913 65 SI MM NOT_NAMED 1912-11-27 00:00:00 TS -16.3215 42.4360 main 207 201 _____P___OP___ -1 -16.4021 42.4709 99 -16.3000 42.4000 TC 65 -16.2355 42.4257 4 5 223
1912324S11066 1913 65 SI MM NOT_NAMED 1912-11-27 03:00:00 TS -16.4985 42.2673 main 203 203 _____P___PP___ -1 -16.5589 42.3265 99 -16.4600 42.2000 TC 65 -16.4160 42.2162 4 5 220
1912324S11066 1913 65 SI MM NOT_NAMED 1912-11-27 06:00:00 TS -16.6667 42.1333 reunion main 211 206 _____O___OO___ -1 -16.7000 42.2000 99 9.90000 -16.6000 42.0000 TC 65 -16.6000 42.0000 4 4 208
1912324S11066 1913 65 SI MM NOT_NAMED 1912-11-27 09:00:00 NR -16.8247 42.0895 main 206 202 _____P________ -1 -16.8247 42.0895 99 TC 4 3 206
1912324S11066 1913 65 SI MM NOT_NAMED 1912-11-27 12:00:00 NR -16.9344 41.9932 main 212 209 _____P________ -1 -16.9344 41.9932 99 4 3 220
1912324S11066 1913 65 SI MM NOT_NAMED 1912-11-27 15:00:00 NR -17.0315 41.9091 main 216 216 _____P________ -1 -17.0315 41.9091 99 4 2 220
1912324S11066 1913 65 SI MM NOT_NAMED 1912-11-27 18:00:00 NR -17.1179 41.8351 main 216 216 _____P________ -1 -17.1179 41.8351 99 2 218
1912324S11066 1913 65 SI MM NOT_NAMED 1912-11-27 21:00:00 NR -17.1959 41.7692 main 222 212 _____P________ -1 -17.1959 41.7692 99 2 218
1912324S11066 1913 65 SI MM NOT_NAMED 1912-11-28 00:00:00 NR -17.2675 41.7094 main 218 218 _____P________ -1 -17.2675 41.7094 99 2 218
1912324S11066 1913 65 SI MM NOT_NAMED 1912-11-28 03:00:00 NR -17.3348 41.6537 main 218 210 _____P________ -1 -17.3348 41.6537 99 2 218
1912324S11066 1913 65 SI MM NOT_NAMED 1912-11-28 06:00:00 NR -17.4000 41.6000 reunion main 216 _____O________ -1 -17.4000 41.6000 99 9.90000 2 223

About IBTrACS Database

This database is a web-friendly format of International Best Track Archive for Climate Stewardship (IBTrACS), a global best track data archive curated by NOAA dating back to 1842.

Updated: 2021-12-08